Terminal Aerodrome Forecast
Issued by NWS

Home | Current Version | Previous Version | Graphics & Text | Print | Product List | Glossary On
Versions: 1 2 3 4 5 6 7 8 9 10 11 12 13 14 15 16 17 18 19 20 21 22 23
000
FTUS43 KABR 230349 AAC
TAFPIR
TAF AMD
KPIR 230349Z 2304/2324 33010G22KT P6SM OVC017
     FM230500 36008KT P6SM VCSH BKN040
     FM230800 35008KT P6SM BKN030
     FM231200 35008KT P6SM VCSH OVC015
     FM231400 35008KT P6SM OVC015
     FM231700 01008KT P6SM -SHRA OVC010
     FM232100 02008KT 3SM -SHRA BR OVC008=

USA.gov is the U.S. government's official web portal to all federal, state and local government web resources and services.